Charlestown, Rhode Island
Current Conditions -  °F | °C
As of 6:53 AM on Sunday 25 Jan 2015 (Local Time) from KWST Reporting Station
Clear Clear  
Wind Chill: 26°   Ceiling: Unl
Heat Index: 31°   Visibility: 10mi
Dew Point: 25°   Wind: 5mph
Humidity: 79%   Direction: 250°WSW
Pressure: 29.58"   Gusts: NA
Location:  41.38°N, 71.64°W
Report Text: KWST 251153Z AUTO 25004KT 10SM CLR M01/M04 A2958 RMK AO2 SLP018 70045 T10061039 10006 21006 53026
Loading
Personal Weather Stations






























Interactive Weather Map New forecast layout! Learn more

10-Day Weather Forecast

Advertisements
Track Severe Weather on mobile